createdAt,value
2023-03-12T00:01:23.455Z,99014.63
2023-03-12T00:03:50.577Z,99012.09
2023-03-12T00:06:18.541Z,98995.03
2023-03-12T00:08:45.131Z,98995.88
2023-03-12T00:11:14.559Z,98992.47
2023-03-12T00:13:41.204Z,98995.06
2023-03-12T00:16:10.458Z,98995.13
2023-03-12T00:18:37.422Z,98994.28
2023-03-12T00:21:04.786Z,98991.75
2023-03-12T00:23:31.597Z,98986.66
2023-03-12T00:26:02.547Z,98986.66
2023-03-12T00:28:29.582Z,98984.97
2023-03-12T00:30:58.353Z,98990.13
2023-03-12T00:33:26.049Z,98981.59
2023-03-12T00:35:53.493Z,98983.34
2023-03-12T00:38:20.280Z,98976.50
2023-03-12T00:40:47.223Z,98979.97
2023-03-12T00:43:14.259Z,98987.69
2023-03-12T00:45:40.857Z,98992.00
2023-03-12T00:48:07.642Z,98986.84
2023-03-12T00:50:34.252Z,98983.44
2023-03-12T00:53:01.262Z,98985.19
2023-03-12T00:55:27.783Z,98992.91
2023-03-12T00:57:54.331Z,98992.06
2023-03-12T01:00:21.509Z,98985.25
2023-03-12T01:02:48.101Z,98983.53
2023-03-12T01:05:15.231Z,98986.94
2023-03-12T01:07:41.939Z,98990.41
2023-03-12T01:10:09.838Z,98986.13
2023-03-12T01:12:37.125Z,98978.44
2023-03-12T01:15:05.603Z,98984.44
2023-03-12T01:17:32.118Z,98984.44
2023-03-12T01:20:00.297Z,98987.03
2023-03-12T01:22:28.472Z,98983.63
2023-03-12T01:24:56.118Z,98985.31
2023-03-12T01:27:23.785Z,98985.34
2023-03-12T01:29:51.167Z,98989.63
2023-03-12T01:32:19.394Z,98987.03
2023-03-12T01:34:47.137Z,98991.34
2023-03-12T01:37:15.308Z,98983.59
2023-03-12T01:39:43.025Z,98978.47
2023-03-12T01:42:11.041Z,98978.47
2023-03-12T01:44:58.857Z,98987.03
2023-03-12T01:47:29.104Z,98973.34
2023-03-12T01:49:56.120Z,98976.78
2023-03-12T01:52:30.877Z,98982.75
2023-03-12T01:55:06.107Z,98975.91
2023-03-12T02:00:13.926Z,98979.31
2023-03-12T02:02:41.673Z,98982.75
2023-03-12T02:05:17.312Z,98976.75
2023-03-12T02:07:43.831Z,98969.91
2023-03-12T02:10:11.764Z,98973.31
2023-03-12T02:12:38.370Z,98971.63
2023-03-12T02:15:05.631Z,98979.34
2023-03-12T02:17:32.549Z,98969.06
2023-03-12T02:22:54.460Z,98969.91
2023-03-12T02:28:06.850Z,98969.88
2023-03-12T02:30:34.167Z,98975.03
2023-03-12T02:33:05.524Z,98970.75
2023-03-12T02:35:32.147Z,98975.03
2023-03-12T02:37:58.906Z,98975.91
2023-03-12T02:40:33.983Z,98973.31
2023-03-12T02:43:01.577Z,98981.03
2023-03-12T02:45:29.904Z,98979.34
2023-03-12T02:47:56.430Z,98982.75
2023-03-12T02:50:23.156Z,98978.47
2023-03-12T02:52:49.679Z,98986.19
2023-03-12T02:55:16.271Z,98982.75
2023-03-12T02:57:43.822Z,98983.59
2023-03-12T03:00:12.921Z,98985.31
2023-03-12T03:02:40.405Z,98985.31
2023-03-12T03:05:07.910Z,98978.47
2023-03-12T03:07:34.485Z,98983.59
2023-03-12T03:10:04.211Z,98998.16
2023-03-12T03:12:32.658Z,98995.59
2023-03-12T03:14:59.266Z,98988.75
2023-03-12T03:17:26.736Z,98993.88
2023-03-12T03:19:53.360Z,98990.44
2023-03-12T03:22:21.597Z,98991.31
2023-03-12T03:24:48.197Z,99000.72
2023-03-12T03:27:15.569Z,99011.88
2023-03-12T03:29:42.174Z,99011.00
2023-03-12T03:32:08.745Z,99018.72
2023-03-12T03:34:35.370Z,99029.00
2023-03-12T03:37:01.928Z,99035.00
2023-03-12T03:39:29.682Z,99031.56
2023-03-12T03:41:56.392Z,99035.00
2023-03-12T03:44:24.139Z,99035.88
2023-03-12T03:46:50.691Z,99034.16
2023-03-12T03:49:17.335Z,99015.31
2023-03-12T03:51:43.924Z,99019.59
2023-03-12T03:54:11.233Z,99036.72
2023-03-12T03:56:38.268Z,99042.75
2023-03-12T03:59:04.850Z,99057.28
2023-03-12T04:01:31.517Z,99065.84
2023-03-12T04:03:59.085Z,99071.00
2023-03-12T04:06:26.343Z,99070.13
2023-03-12T04:08:52.898Z,99065.84
2023-03-12T04:11:21.697Z,99062.41
2023-03-12T04:13:49.492Z,99065.84
2023-03-12T04:16:17.480Z,99068.44
2023-03-12T04:18:44.384Z,99069.28
2023-03-12T04:21:12.565Z,99062.44
2023-03-12T04:23:39.354Z,99065.88
2023-03-12T04:26:07.378Z,99069.28
2023-03-12T04:28:34.743Z,99072.72
2023-03-12T04:31:04.915Z,99063.28
2023-03-12T04:33:34.710Z,99059.84
2023-03-12T04:36:01.341Z,99053.88
2023-03-12T04:38:28.711Z,99065.84
2023-03-12T04:41:07.391Z,99065.00
2023-03-12T04:43:34.769Z,99062.41
2023-03-12T04:46:01.332Z,99067.56
2023-03-12T04:48:28.862Z,99072.72
2023-03-12T04:50:55.540Z,99083.88
2023-03-12T04:53:22.881Z,99088.16
2023-03-12T04:55:50.359Z,99089.03
2023-03-12T04:58:18.164Z,99089.88
2023-03-12T05:00:45.089Z,99087.31
2023-03-12T05:03:12.608Z,99100.19
2023-03-12T05:05:39.208Z,99095.03
2023-03-12T05:08:05.954Z,99105.28
2023-03-12T05:10:32.836Z,99103.59
2023-03-12T05:12:59.502Z,99109.59
2023-03-12T05:15:26.485Z,99107.00
2023-03-12T05:17:54.838Z,99110.44
2023-03-12T05:20:21.980Z,99103.56
2023-03-12T05:22:48.881Z,99108.72
2023-03-12T05:25:15.479Z,99112.13
2023-03-12T05:27:42.050Z,99112.13
2023-03-12T05:30:09.793Z,99125.00
2023-03-12T05:32:36.469Z,99125.00
2023-03-12T05:35:03.285Z,99121.56
2023-03-12T05:37:29.878Z,99128.44
2023-03-12T05:39:56.603Z,99128.44
2023-03-12T05:42:25.319Z,99137.88
2023-03-12T05:44:52.407Z,99141.31
2023-03-12T05:47:19.588Z,99134.44
2023-03-12T05:49:46.185Z,99136.16
2023-03-12T05:52:12.719Z,99143.88
2023-03-12T05:54:39.479Z,99131.03
2023-03-12T05:57:06.213Z,99131.88
2023-03-12T05:59:32.885Z,99139.59
2023-03-12T06:01:59.571Z,99134.44
2023-03-12T06:04:26.214Z,99139.59
2023-03-12T06:06:52.806Z,99138.72
2023-03-12T06:09:19.469Z,99135.28
2023-03-12T06:11:46.026Z,99136.13
2023-03-12T06:14:13.133Z,99136.13
2023-03-12T06:16:39.819Z,99136.13
2023-03-12T06:19:07.703Z,99146.44
2023-03-12T06:21:35.612Z,99144.69
2023-03-12T06:24:03.176Z,99136.13
2023-03-12T06:26:29.751Z,99140.41
2023-03-12T06:28:56.589Z,99138.69
2023-03-12T06:31:24.211Z,99133.53
2023-03-12T06:33:51.161Z,99142.97
2023-03-12T06:36:18.117Z,99156.69
2023-03-12T06:38:44.687Z,99151.56
2023-03-12T06:41:15.632Z,99153.25
2023-03-12T06:43:43.315Z,99144.69
2023-03-12T06:46:14.884Z,99156.69
2023-03-12T06:48:41.691Z,99160.09
2023-03-12T06:51:09.671Z,99170.41
2023-03-12T06:53:36.435Z,99180.72
2023-03-12T06:56:03.641Z,99173.84
2023-03-12T06:58:30.694Z,99178.13
2023-03-12T07:00:57.278Z,99176.41
2023-03-12T07:03:23.926Z,99180.69
2023-03-12T07:05:51.302Z,99182.41
2023-03-12T07:08:18.971Z,99197.00
2023-03-12T07:10:46.179Z,99194.41
2023-03-12T07:13:13.019Z,99181.53
2023-03-12T07:15:39.784Z,99173.81
2023-03-12T07:18:08.333Z,99172.94
2023-03-12T07:20:40.795Z,99165.22
2023-03-12T07:23:07.594Z,99168.63
2023-03-12T07:25:37.354Z,99176.34
2023-03-12T07:28:04.399Z,99172.03
2023-03-12T07:30:33.611Z,99187.47
2023-03-12T07:33:05.033Z,99182.31
2023-03-12T07:35:32.933Z,99199.47
2023-03-12T07:38:01.027Z,99208.91
2023-03-12T07:40:29.002Z,99208.06
2023-03-12T07:42:55.614Z,99210.66
2023-03-12T07:45:22.336Z,99208.91
2023-03-12T07:47:49.739Z,99202.88
2023-03-12T07:50:18.138Z,99194.28
2023-03-12T07:52:45.231Z,99195.94
2023-03-12T07:55:12.211Z,99203.53
2023-03-12T07:57:38.979Z,99209.31
2023-03-12T08:00:07.904Z,99190.09
2023-03-12T08:02:35.870Z,99196.53
2023-03-12T08:05:02.837Z,99208.25
2023-03-12T08:07:32.500Z,99213.94
2023-03-12T08:10:00.526Z,99214.28
2023-03-12T08:12:28.020Z,99227.22
2023-03-12T08:14:54.797Z,99210.78
2023-03-12T08:17:21.472Z,99222.31
2023-03-12T08:19:48.261Z,99208.75
2023-03-12T08:22:14.825Z,99215.84
2023-03-12T08:24:41.421Z,99211.50
2023-03-12T08:27:07.953Z,99196.28
2023-03-12T08:29:34.772Z,99198.78
2023-03-12T08:32:05.232Z,99199.59
2023-03-12T08:34:33.971Z,99197.13
2023-03-12T08:37:01.344Z,99199.94
2023-03-12T08:39:27.863Z,99193.56
2023-03-12T08:41:55.439Z,99188.88
2023-03-12T08:44:23.323Z,99192.91
2023-03-12T08:46:50.275Z,99191.31
2023-03-12T08:49:17.162Z,99197.66
2023-03-12T08:51:43.672Z,99198.63
2023-03-12T08:54:10.327Z,99190.81
2023-03-12T08:56:41.914Z,99205.09
2023-03-12T08:59:09.919Z,99202.13
2023-03-12T09:01:36.616Z,99186.28
2023-03-12T09:04:04.060Z,99186.28
2023-03-12T09:06:30.758Z,99204.72
2023-03-12T09:08:57.765Z,99207.97
2023-03-12T09:11:24.314Z,99212.19
2023-03-12T09:14:15.280Z,99222.41
2023-03-12T09:16:37.617Z,99214.69
2023-03-12T09:19:04.507Z,99228.72
2023-03-12T09:21:31.102Z,99238.94
2023-03-12T09:23:57.765Z,99232.56
2023-03-12T09:26:24.315Z,99232.19
2023-03-12T09:28:50.976Z,99218.31
2023-03-12T09:31:17.729Z,99226.47
2023-03-12T09:33:44.696Z,99226.16
2023-03-12T09:36:11.294Z,99225.03
2023-03-12T09:38:38.074Z,99210.03
2023-03-12T09:41:06.013Z,99208.69
2023-03-12T09:43:38.698Z,99188.75
2023-03-12T09:46:13.777Z,99200.03
2023-03-12T09:48:40.636Z,99196.13
2023-03-12T09:51:17.212Z,99197.38
2023-03-12T09:53:51.214Z,99200.59
2023-03-12T09:56:20.500Z,99200.75
2023-03-12T09:58:48.380Z,99209.13
2023-03-12T10:09:54.832Z,99211.56
2023-03-12T10:26:25.635Z,99179.75
2023-03-12T10:28:59.074Z,99191.16
2023-03-12T10:31:30.902Z,99177.31
2023-03-12T10:34:01.305Z,99182.25
2023-03-12T10:39:06.896Z,99186.13
2023-03-12T10:41:34.900Z,99186.34
2023-03-12T10:44:07.747Z,99176.34
2023-03-12T10:46:51.611Z,99184.00
2023-03-12T10:52:21.005Z,99180.88
2023-03-12T10:54:50.153Z,99185.25
2023-03-12T10:57:17.195Z,99179.91
2023-03-12T10:59:47.730Z,99179.38
2023-03-12T11:05:21.714Z,99173.31
2023-03-12T11:07:48.606Z,99177.09
2023-03-12T11:10:20.362Z,99187.81
2023-03-12T11:13:05.447Z,99174.44
2023-03-12T11:15:41.783Z,99169.72
2023-03-12T11:21:17.347Z,99171.66
2023-03-12T11:24:04.368Z,99160.69
2023-03-12T11:34:37.439Z,99164.91
2023-03-12T11:40:10.018Z,99155.44
2023-03-12T11:42:52.115Z,99145.91
2023-03-12T11:45:51.046Z,99138.06
2023-03-12T11:51:33.450Z,99141.13
2023-03-12T11:56:56.149Z,99141.63
2023-03-12T11:59:47.764Z,99145.97
2023-03-12T12:05:11.767Z,99138.19
2023-03-12T12:13:18.494Z,99127.63
2023-03-12T12:18:57.285Z,99105.75
2023-03-12T12:22:03.751Z,99102.13
2023-03-12T12:25:10.305Z,99098.94
2023-03-12T12:27:44.500Z,99120.09
2023-03-12T12:36:29.771Z,99089.69
2023-03-12T12:39:05.106Z,99078.34
2023-03-12T12:41:38.102Z,99080.13
2023-03-12T12:44:12.860Z,99071.31
2023-03-12T12:46:45.236Z,99072.88
2023-03-12T12:49:19.456Z,99069.22
2023-03-12T12:51:50.794Z,99071.84
2023-03-12T12:57:00.670Z,99063.66
2023-03-12T12:59:39.089Z,99061.09
2023-03-12T13:02:17.152Z,99043.03
2023-03-12T13:04:44.512Z,99045.59
2023-03-12T13:09:52.384Z,99041.94
2023-03-12T13:18:17.232Z,99043.38
2023-03-12T13:21:08.770Z,99041.09
2023-03-12T13:32:10.835Z,99030.44
2023-03-12T13:34:45.638Z,99012.44
2023-03-12T13:37:20.443Z,99011.69
2023-03-12T13:39:47.026Z,99017.06
2023-03-12T13:45:22.270Z,99007.97
2023-03-12T13:47:52.033Z,99017.53
2023-03-12T13:50:18.596Z,99010.69
2023-03-12T13:53:08.072Z,99004.97
2023-03-12T13:55:37.636Z,98995.53
2023-03-12T14:03:33.730Z,98998.72
2023-03-12T14:06:10.697Z,99004.13
2023-03-12T14:11:31.356Z,98996.72
2023-03-12T14:16:42.033Z,98975.47
2023-03-12T14:19:13.723Z,98984.09
2023-03-12T14:21:44.521Z,98983.28
2023-03-12T14:24:33.714Z,98980.97
2023-03-12T14:27:02.505Z,98961.66
2023-03-12T14:32:19.409Z,98961.09
2023-03-12T14:34:53.878Z,98961.97
2023-03-12T14:37:28.137Z,98962.88
2023-03-12T14:40:00.567Z,98950.22
2023-03-12T14:42:34.082Z,98950.31
2023-03-12T14:45:11.489Z,98946.13
2023-03-12T14:50:21.661Z,98937.59
2023-03-12T14:52:48.347Z,98930.69
2023-03-12T14:55:18.817Z,98926.44
2023-03-12T14:57:45.937Z,98928.44
2023-03-12T15:00:27.850Z,98921.94
2023-03-12T15:02:57.754Z,98928.81
2023-03-12T15:05:24.555Z,98929.47
2023-03-12T15:07:56.050Z,98937.16
2023-03-12T15:10:26.032Z,98936.38
2023-03-12T15:12:56.207Z,98920.84
2023-03-12T15:18:08.553Z,98922.50
2023-03-12T15:20:35.944Z,98914.66
2023-03-12T15:23:04.554Z,98914.75
2023-03-12T15:25:33.898Z,98910.66
2023-03-12T15:30:44.181Z,98910.19
2023-03-12T15:33:27.641Z,98905.00
2023-03-12T15:38:44.320Z,98889.47
2023-03-12T15:41:20.742Z,98887.84
2023-03-12T15:43:50.998Z,98879.69
2023-03-12T15:46:18.015Z,98879.25
2023-03-12T15:48:51.111Z,98863.75
2023-03-12T15:51:36.147Z,98857.91
2023-03-12T15:57:12.212Z,98838.81
2023-03-12T15:59:38.776Z,98833.75
2023-03-12T16:02:11.263Z,98837.22
2023-03-12T16:04:37.935Z,98836.38
2023-03-12T16:07:12.017Z,98826.13
2023-03-12T16:09:38.593Z,98831.38
2023-03-12T16:12:05.368Z,98819.34
2023-03-12T16:14:36.211Z,98822.06
2023-03-12T16:17:02.932Z,98816.91
2023-03-12T16:19:33.666Z,98814.50
2023-03-12T16:22:00.304Z,98802.50
2023-03-12T16:24:26.822Z,98811.22
2023-03-12T16:26:56.748Z,98796.63
2023-03-12T16:29:32.148Z,98796.91
2023-03-12T16:31:59.454Z,98786.47
2023-03-12T16:34:28.105Z,98785.72
2023-03-12T16:36:54.710Z,98764.25
2023-03-12T16:39:21.281Z,98768.72
2023-03-12T16:41:48.034Z,98773.06
2023-03-12T16:44:19.946Z,98749.66
2023-03-12T16:46:46.622Z,98744.56
2023-03-12T16:49:16.458Z,98739.41
2023-03-12T16:51:43.192Z,98742.19
2023-03-12T16:54:12.005Z,98735.28
2023-03-12T16:56:43.501Z,98735.28
2023-03-12T16:59:23.217Z,98726.69
2023-03-12T17:01:50.032Z,98723.28
2023-03-12T17:04:16.639Z,98720.00
2023-03-12T17:06:43.176Z,98711.38
2023-03-12T17:09:09.723Z,98702.91
2023-03-12T17:11:37.986Z,98695.31
2023-03-12T17:14:19.057Z,98703.41
2023-03-12T17:16:45.728Z,98700.97
2023-03-12T17:19:12.325Z,98702.69
2023-03-12T17:21:39.622Z,98693.34
2023-03-12T17:24:06.599Z,98688.91
2023-03-12T17:26:33.891Z,98682.97
2023-03-12T17:29:00.431Z,98679.66
2023-03-12T17:31:27.137Z,98677.28
2023-03-12T17:33:53.668Z,98670.41
2023-03-12T17:36:20.205Z,98673.91
2023-03-12T17:38:48.947Z,98668.94
2023-03-12T17:41:26.002Z,98669.00
2023-03-12T17:43:54.772Z,98663.09
2023-03-12T17:46:21.887Z,98670.00
2023-03-12T17:48:48.483Z,98662.31
2023-03-12T17:51:15.005Z,98650.25
2023-03-12T17:53:42.054Z,98647.00
2023-03-12T17:56:09.212Z,98646.25
2023-03-12T17:58:35.921Z,98635.00
2023-03-12T18:01:02.419Z,98628.34
2023-03-12T18:03:29.075Z,98614.53
2023-03-12T18:05:55.863Z,98615.59
2023-03-12T18:08:22.423Z,98623.66
2023-03-12T18:10:49.098Z,98623.69
2023-03-12T18:13:15.837Z,98619.63
2023-03-12T18:15:42.459Z,98618.09
2023-03-12T18:18:09.093Z,98612.91
2023-03-12T18:20:39.498Z,98607.94
2023-03-12T18:23:06.890Z,98615.75
2023-03-12T18:25:33.492Z,98616.72
2023-03-12T18:28:00.055Z,98613.34
2023-03-12T18:30:28.241Z,98609.97
2023-03-12T18:32:54.960Z,98604.88
2023-03-12T18:35:22.707Z,98591.22
2023-03-12T18:37:51.901Z,98583.31
2023-03-12T18:40:18.440Z,98586.03
2023-03-12T18:42:44.999Z,98586.09
2023-03-12T18:45:12.429Z,98587.88
2023-03-12T18:47:39.639Z,98571.50
2023-03-12T18:50:08.246Z,98567.25
2023-03-12T18:52:35.571Z,98557.06
2023-03-12T18:55:02.156Z,98551.97
2023-03-12T18:57:28.705Z,98545.06
2023-03-12T18:59:56.022Z,98535.53
2023-03-12T19:02:23.793Z,98532.16
2023-03-12T19:04:51.381Z,98534.81
2023-03-12T19:07:19.701Z,98515.78
2023-03-12T19:09:46.925Z,98514.19
2023-03-12T19:12:13.534Z,98505.69
2023-03-12T19:14:40.159Z,98501.25
2023-03-12T19:17:06.733Z,98494.47
2023-03-12T19:19:33.250Z,98492.84
2023-03-12T19:21:59.886Z,98483.19
2023-03-12T19:24:26.559Z,98473.69
2023-03-12T19:26:53.121Z,98468.59
2023-03-12T19:29:19.671Z,98464.47
2023-03-12T19:31:46.365Z,98460.19
2023-03-12T19:34:12.979Z,98452.34
2023-03-12T19:36:39.587Z,98447.16
2023-03-12T19:39:18.795Z,98437.84
2023-03-12T19:41:47.386Z,98433.47
2023-03-12T19:44:13.912Z,98429.41
2023-03-12T19:46:43.071Z,98419.78
2023-03-12T19:49:10.001Z,98398.38
2023-03-12T19:51:36.669Z,98398.47
2023-03-12T19:54:03.320Z,98394.25
2023-03-12T19:56:29.862Z,98383.84
2023-03-12T19:58:56.415Z,98376.84
2023-03-12T20:01:23.083Z,98357.03
2023-03-12T20:03:49.640Z,98358.69
2023-03-12T20:06:16.381Z,98354.38
2023-03-12T20:08:44.563Z,98347.66
2023-03-12T20:11:11.374Z,98336.44
2023-03-12T20:13:39.131Z,98329.50
2023-03-12T20:16:07.664Z,98326.03
2023-03-12T20:18:34.412Z,98320.09
2023-03-12T20:21:01.026Z,98321.84
2023-03-12T20:23:27.539Z,98323.41
2023-03-12T20:25:54.059Z,98304.50
2023-03-12T20:28:20.704Z,98294.19
2023-03-12T20:30:48.515Z,98284.69
2023-03-12T20:33:15.290Z,98288.94
2023-03-12T20:35:41.871Z,98270.00
2023-03-12T20:38:08.678Z,98275.13
2023-03-12T20:40:35.367Z,98269.84
2023-03-12T20:43:04.910Z,98272.53
2023-03-12T20:45:32.781Z,98256.09
2023-03-12T20:48:00.148Z,98245.56
2023-03-12T20:50:27.669Z,98229.41
2023-03-12T20:52:54.313Z,98218.09
2023-03-12T20:55:20.853Z,98219.94
2023-03-12T20:57:47.378Z,98223.28
2023-03-12T21:00:14.322Z,98222.47
2023-03-12T21:02:40.917Z,98221.47
2023-03-12T21:05:10.090Z,98216.28
2023-03-12T21:07:36.785Z,98201.66
2023-03-12T21:10:03.915Z,98193.09
2023-03-12T21:12:30.456Z,98180.91
2023-03-12T21:15:06.054Z,98164.41
2023-03-12T21:17:34.445Z,98151.63
2023-03-12T21:20:02.302Z,98142.13
2023-03-12T21:22:30.464Z,98136.19
2023-03-12T21:24:57.340Z,98143.06
2023-03-12T21:27:24.330Z,98155.78
2023-03-12T21:29:50.914Z,98148.88
2023-03-12T21:32:17.500Z,98141.91
2023-03-12T21:34:44.121Z,98139.38
2023-03-12T21:37:10.667Z,98121.31
2023-03-12T21:39:37.184Z,98107.47
2023-03-12T21:42:03.902Z,98100.56
2023-03-12T21:44:30.426Z,98098.06
2023-03-12T21:46:57.041Z,98099.56
2023-03-12T21:49:23.669Z,98096.91
2023-03-12T21:51:50.225Z,98083.78
2023-03-12T21:54:16.757Z,98075.31
2023-03-12T21:56:43.430Z,98076.06
2023-03-12T21:59:10.721Z,98070.06
2023-03-12T22:01:37.473Z,98071.75
2023-03-12T22:04:05.666Z,98063.78
2023-03-12T22:06:32.260Z,98060.34
2023-03-12T22:08:58.798Z,98057.59
2023-03-12T22:11:25.318Z,98045.53
2023-03-12T22:13:51.884Z,98054.81
2023-03-12T22:16:18.500Z,98037.56
2023-03-12T22:18:46.617Z,98035.69
2023-03-12T22:21:19.257Z,98033.09
2023-03-12T22:23:48.209Z,98031.22
2023-03-12T22:26:15.031Z,98025.16
2023-03-12T22:28:41.666Z,98018.91
2023-03-12T22:31:09.397Z,98018.75
2023-03-12T22:33:36.871Z,98005.88
2023-03-12T22:36:08.001Z,98007.53
2023-03-12T22:38:36.776Z,97997.03
2023-03-12T22:44:00.944Z,97965.75
2023-03-12T22:46:28.096Z,97949.47
2023-03-12T22:48:57.043Z,97940.75
2023-03-12T22:51:24.807Z,97946.59
2023-03-12T22:53:51.462Z,97924.16
2023-03-12T22:56:18.222Z,97916.41
2023-03-12T22:58:44.986Z,97915.53
2023-03-12T23:01:16.044Z,97914.66
2023-03-12T23:03:43.926Z,97924.06
2023-03-12T23:06:12.623Z,97915.25
2023-03-12T23:08:39.650Z,97911.69
2023-03-12T23:11:07.760Z,97903.09
2023-03-12T23:13:36.506Z,97904.59
2023-03-12T23:16:07.137Z,97897.53
2023-03-12T23:18:34.832Z,97892.34
2023-03-12T23:21:04.668Z,97889.72
2023-03-12T23:23:32.006Z,97878.25
2023-03-12T23:26:00.174Z,97884.13
2023-03-12T23:28:28.650Z,97889.31
2023-03-12T23:30:58.173Z,97864.38
2023-03-12T23:33:25.726Z,97865.09
2023-03-12T23:36:02.488Z,97859.19
2023-03-12T23:38:30.254Z,97853.75
2023-03-12T23:41:11.346Z,97862.19
2023-03-12T23:43:38.127Z,97855.31
2023-03-12T23:46:06.387Z,97851.69
2023-03-12T23:48:34.038Z,97833.47
2023-03-12T23:51:07.999Z,97834.34
2023-03-12T23:53:35.483Z,97815.16
2023-03-12T23:56:04.670Z,97813.31
2023-03-12T23:58:31.551Z,97801.16
